createdAt,value
2023-01-21T00:01:48.614Z,5.73
2023-01-21T00:04:16.977Z,5.73
2023-01-21T00:06:45.808Z,5.97
2023-01-21T00:09:14.902Z,5.90
2023-01-21T00:11:44.437Z,5.87
2023-01-21T00:14:13.495Z,5.73
2023-01-21T00:16:41.617Z,5.93
2023-01-21T00:19:09.857Z,5.60
2023-01-21T00:21:38.078Z,5.67
2023-01-21T00:24:06.586Z,5.43
2023-01-21T00:26:35.029Z,5.67
2023-01-21T00:29:05.373Z,6.43
2023-01-21T00:31:34.239Z,6.97
2023-01-21T00:34:02.978Z,7.20
2023-01-21T00:36:31.374Z,6.70
2023-01-21T00:38:59.693Z,7.37
2023-01-21T00:41:27.919Z,7.80
2023-01-21T00:43:56.202Z,8.00
2023-01-21T00:46:26.108Z,7.87
2023-01-21T00:48:56.073Z,7.73
2023-01-21T00:51:24.684Z,7.60
2023-01-21T00:53:52.908Z,7.43
2023-01-21T00:56:21.429Z,7.40
2023-01-21T00:58:50.035Z,7.10
2023-01-21T01:01:20.538Z,8.03
2023-01-21T01:03:51.184Z,7.80
2023-01-21T01:06:21.299Z,7.63
2023-01-21T01:08:50.533Z,8.00
2023-01-21T01:11:21.523Z,7.47
2023-01-21T01:13:49.891Z,8.27
2023-01-21T01:16:18.808Z,9.17
2023-01-21T01:18:49.037Z,8.77
2023-01-21T01:21:19.620Z,8.87
2023-01-21T01:23:48.982Z,9.33
2023-01-21T01:26:18.832Z,9.17
2023-01-21T01:28:47.844Z,9.57
2023-01-21T01:31:21.059Z,9.67
2023-01-21T01:33:50.756Z,9.27
2023-01-21T01:36:23.483Z,9.20
2023-01-21T01:38:52.292Z,9.53
2023-01-21T01:41:23.698Z,9.20
2023-01-21T01:43:58.049Z,9.53
2023-01-21T01:46:28.533Z,9.47
2023-01-21T01:49:03.481Z,9.63
2023-01-21T01:51:40.422Z,10.20
2023-01-21T01:54:10.851Z,9.00
2023-01-21T01:56:41.273Z,8.90
2023-01-21T01:59:09.528Z,10.23
2023-01-21T02:01:38.628Z,9.80
2023-01-21T02:04:13.188Z,9.57
2023-01-21T02:06:42.412Z,9.77
2023-01-21T02:09:10.664Z,9.67
2023-01-21T02:11:38.874Z,9.53
2023-01-21T02:14:07.278Z,9.50
2023-01-21T02:17:01.371Z,9.50
2023-01-21T02:19:56.461Z,9.10
2023-01-21T02:22:33.035Z,9.73
2023-01-21T02:25:35.848Z,10.03
2023-01-21T02:28:41.171Z,9.93
2023-01-21T02:31:35.219Z,10.20
2023-01-21T02:34:28.503Z,8.97
2023-01-21T02:37:07.329Z,9.63
2023-01-21T02:40:04.690Z,9.03
2023-01-21T02:42:39.754Z,9.73
2023-01-21T02:45:15.684Z,10.00
2023-01-21T02:47:53.860Z,9.87
2023-01-21T02:50:27.436Z,10.13
2023-01-21T02:52:59.681Z,9.47
2023-01-21T02:55:31.305Z,9.97
2023-01-21T02:58:02.484Z,9.90
2023-01-21T03:00:43.124Z,9.63
2023-01-21T03:03:33.114Z,10.10
2023-01-21T03:06:36.985Z,9.40
2023-01-21T03:09:18.549Z,10.83
2023-01-21T03:11:58.012Z,9.70
2023-01-21T03:14:49.084Z,9.93
2023-01-21T03:17:28.768Z,10.07
2023-01-21T03:20:02.957Z,9.60
2023-01-21T03:22:36.180Z,10.27
2023-01-21T03:25:08.222Z,9.23
2023-01-21T03:27:42.905Z,9.17
2023-01-21T03:30:15.261Z,9.63
2023-01-21T03:32:45.709Z,9.67
2023-01-21T03:35:18.060Z,9.63
2023-01-21T03:37:52.970Z,9.73
2023-01-21T03:40:26.023Z,10.23
2023-01-21T03:42:56.353Z,10.23
2023-01-21T03:45:35.179Z,9.40
2023-01-21T03:48:11.161Z,9.53
2023-01-21T03:50:42.355Z,10.50
2023-01-21T03:53:10.992Z,10.80
2023-01-21T03:55:40.494Z,10.63
2023-01-21T03:58:08.745Z,10.80
2023-01-21T04:00:36.939Z,12.50
2023-01-21T04:03:08.153Z,12.03
2023-01-21T04:05:36.463Z,12.23
2023-01-21T04:08:05.174Z,12.33
2023-01-21T04:10:33.368Z,12.93
2023-01-21T04:13:02.866Z,14.07
2023-01-21T04:15:31.047Z,13.43
2023-01-21T04:17:59.162Z,13.43
2023-01-21T04:20:27.364Z,14.23
2023-01-21T04:22:55.947Z,14.10
2023-01-21T04:25:24.130Z,14.10
2023-01-21T04:27:52.331Z,14.53
2023-01-21T04:30:22.088Z,15.23
2023-01-21T04:32:50.430Z,14.07
2023-01-21T04:35:18.602Z,14.00
2023-01-21T04:37:46.941Z,14.60
2023-01-21T04:40:15.723Z,15.23
2023-01-21T04:42:44.072Z,15.30
2023-01-21T04:45:12.772Z,16.97
2023-01-21T04:47:43.976Z,16.30
2023-01-21T04:50:14.269Z,15.80
2023-01-21T04:52:43.398Z,17.43
2023-01-21T04:55:11.934Z,18.07
2023-01-21T04:57:40.197Z,17.87
2023-01-21T05:00:09.575Z,18.97
2023-01-21T05:02:38.131Z,18.97
2023-01-21T05:05:08.661Z,19.50
2023-01-21T05:07:37.801Z,19.03
2023-01-21T05:10:07.113Z,19.47
2023-01-21T05:12:35.226Z,19.73
2023-01-21T05:15:04.828Z,20.00
2023-01-21T05:17:33.277Z,19.53
2023-01-21T05:20:01.531Z,20.33
2023-01-21T05:22:31.053Z,19.00
2023-01-21T05:25:00.559Z,20.87
2023-01-21T05:27:28.956Z,20.10
2023-01-21T05:29:57.954Z,20.03
2023-01-21T05:32:26.107Z,19.13
2023-01-21T05:34:54.307Z,19.07
2023-01-21T05:37:22.533Z,19.83
2023-01-21T05:39:52.094Z,20.93
2023-01-21T05:42:20.301Z,21.13
2023-01-21T05:44:48.555Z,20.83
2023-01-21T05:47:17.834Z,19.90
2023-01-21T05:49:46.005Z,19.73
2023-01-21T05:52:14.192Z,18.97
2023-01-21T05:54:59.974Z,17.53
2023-01-21T05:57:31.185Z,18.07
2023-01-21T05:59:59.983Z,18.40
2023-01-21T06:02:28.622Z,17.00
2023-01-21T06:04:56.838Z,16.23
2023-01-21T06:07:25.126Z,17.00
2023-01-21T06:09:53.395Z,16.10
2023-01-21T06:12:23.827Z,15.53
2023-01-21T06:14:54.351Z,15.43
2023-01-21T06:17:22.544Z,15.57
2023-01-21T06:19:50.720Z,15.23
2023-01-21T06:22:19.641Z,15.17
2023-01-21T06:24:48.141Z,14.37
2023-01-21T06:27:16.332Z,15.03
2023-01-21T06:29:44.469Z,14.17
2023-01-21T06:32:14.219Z,14.37
2023-01-21T06:34:42.386Z,14.30
2023-01-21T06:37:10.590Z,14.10
2023-01-21T06:39:38.834Z,14.33
2023-01-21T06:42:07.255Z,14.00
2023-01-21T06:44:35.761Z,13.70
2023-01-21T06:47:04.206Z,13.40
2023-01-21T06:49:33.699Z,13.93
2023-01-21T06:52:02.251Z,14.03
2023-01-21T06:54:30.671Z,13.80
2023-01-21T06:56:58.982Z,14.03
2023-01-21T06:59:27.269Z,13.30
2023-01-21T07:01:58.963Z,13.63
2023-01-21T07:04:28.326Z,13.83
2023-01-21T07:06:57.959Z,13.07
2023-01-21T07:09:28.456Z,13.43
2023-01-21T07:11:56.668Z,13.53
2023-01-21T07:14:24.863Z,15.27
2023-01-21T07:16:55.025Z,14.63
2023-01-21T07:19:23.294Z,14.93
2023-01-21T07:21:51.984Z,15.20
2023-01-21T07:24:24.716Z,15.27
2023-01-21T07:26:52.889Z,13.87
2023-01-21T07:29:23.164Z,14.70
2023-01-21T07:31:51.537Z,14.07
2023-01-21T07:34:19.912Z,13.27
2023-01-21T07:36:48.081Z,14.97
2023-01-21T07:39:16.421Z,14.23
2023-01-21T07:41:46.628Z,14.20
2023-01-21T07:44:14.911Z,12.83
2023-01-21T07:46:43.869Z,12.93
2023-01-21T07:49:17.114Z,14.37
2023-01-21T07:51:45.843Z,14.57
2023-01-21T07:54:15.006Z,13.40
2023-01-21T07:56:46.211Z,13.70
2023-01-21T07:59:15.153Z,15.27
2023-01-21T08:01:43.544Z,15.87
2023-01-21T08:04:12.456Z,17.03
2023-01-21T08:06:41.441Z,16.33
2023-01-21T08:09:10.523Z,16.90
2023-01-21T08:11:39.700Z,15.90
2023-01-21T08:14:09.376Z,18.17
2023-01-21T08:16:37.698Z,18.80
2023-01-21T08:19:06.226Z,17.87
2023-01-21T08:21:34.993Z,17.67
2023-01-21T08:24:03.447Z,18.50
2023-01-21T08:26:31.893Z,19.13
2023-01-21T08:29:00.851Z,18.57
2023-01-21T08:31:35.178Z,19.23
2023-01-21T08:34:18.529Z,18.20
2023-01-21T08:37:02.291Z,18.57
2023-01-21T08:39:45.507Z,18.53
2023-01-21T08:42:28.813Z,20.20
2023-01-21T08:45:15.328Z,19.00
2023-01-21T08:48:00.052Z,19.33
2023-01-21T08:50:43.360Z,19.33
2023-01-21T08:53:26.792Z,19.37
2023-01-21T08:56:10.461Z,20.27
2023-01-21T08:58:56.101Z,17.90
2023-01-21T09:01:40.996Z,17.60
2023-01-21T09:04:25.876Z,18.20
2023-01-21T09:07:09.055Z,17.83
2023-01-21T09:09:37.510Z,17.53
2023-01-21T09:12:06.799Z,18.77
2023-01-21T09:14:35.354Z,18.70
2023-01-21T09:17:03.730Z,16.63
2023-01-21T09:19:34.027Z,17.23
2023-01-21T09:22:02.323Z,17.70
2023-01-21T09:24:30.639Z,17.73
2023-01-21T09:26:58.834Z,16.60
2023-01-21T09:29:27.076Z,16.23
2023-01-21T09:31:55.394Z,15.67
2023-01-21T09:34:23.543Z,16.50
2023-01-21T09:36:53.491Z,15.67
2023-01-21T09:39:21.690Z,16.30
2023-01-21T09:41:53.202Z,17.53
2023-01-21T09:44:28.515Z,17.00
2023-01-21T09:47:01.727Z,17.73
2023-01-21T09:49:34.311Z,18.30
2023-01-21T09:52:14.375Z,17.10
2023-01-21T09:54:42.769Z,16.67
2023-01-21T09:57:40.836Z,17.93
2023-01-21T10:00:30.572Z,18.83
2023-01-21T10:03:19.543Z,18.77
2023-01-21T10:06:09.701Z,17.23
2023-01-21T10:08:52.311Z,17.90
2023-01-21T10:11:35.703Z,18.17
2023-01-21T10:14:26.097Z,18.43
2023-01-21T10:17:03.937Z,17.37
2023-01-21T10:19:40.521Z,16.40
2023-01-21T10:22:24.506Z,17.47
2023-01-21T10:25:01.343Z,18.13
2023-01-21T10:27:39.511Z,18.67
2023-01-21T10:30:24.887Z,18.13
2023-01-21T10:32:56.963Z,17.40
2023-01-21T10:35:48.555Z,19.13
2023-01-21T10:38:26.538Z,20.77
2023-01-21T10:41:03.520Z,19.07
2023-01-21T10:43:39.892Z,18.17
2023-01-21T10:46:18.265Z,19.67
2023-01-21T10:49:03.897Z,18.20
2023-01-21T10:51:46.037Z,19.27
2023-01-21T10:54:43.245Z,19.67
2023-01-21T10:57:42.919Z,18.77
2023-01-21T11:00:29.637Z,20.47
2023-01-21T11:03:32.911Z,20.70
2023-01-21T11:06:04.360Z,18.90
2023-01-21T11:08:33.023Z,17.97
2023-01-21T11:11:02.661Z,19.00
2023-01-21T11:13:32.231Z,18.33
2023-01-21T11:16:01.316Z,19.23
2023-01-21T11:18:33.419Z,19.77
2023-01-21T11:21:04.573Z,18.80
2023-01-21T11:23:35.273Z,18.37
2023-01-21T11:26:08.726Z,18.50
2023-01-21T11:28:40.044Z,19.50
2023-01-21T11:31:14.377Z,18.13
2023-01-21T11:33:45.567Z,18.47
2023-01-21T11:36:16.809Z,19.20
2023-01-21T11:38:47.827Z,18.07
2023-01-21T11:41:20.439Z,19.13
2023-01-21T11:43:53.573Z,22.57
2023-01-21T11:46:31.844Z,20.63
2023-01-21T11:49:29.917Z,21.87
2023-01-21T11:52:16.155Z,18.83
2023-01-21T11:54:46.203Z,18.97
2023-01-21T11:57:29.677Z,19.67
2023-01-21T12:00:20.677Z,19.40
2023-01-21T12:03:07.108Z,20.00
2023-01-21T12:05:52.836Z,19.23
2023-01-21T12:08:41.070Z,20.00
2023-01-21T12:11:26.340Z,21.77
2023-01-21T12:14:21.563Z,21.93
2023-01-21T12:17:14.009Z,20.40
2023-01-21T12:20:14.564Z,18.97
2023-01-21T12:23:14.799Z,21.50
2023-01-21T12:25:49.418Z,23.33
2023-01-21T12:28:32.668Z,22.77
2023-01-21T12:31:25.129Z,20.73
2023-01-21T12:34:09.007Z,20.53
2023-01-21T12:36:53.989Z,19.73
2023-01-21T12:39:38.666Z,19.40
2023-01-21T12:42:25.324Z,21.33
2023-01-21T12:45:15.473Z,20.63
2023-01-21T12:48:04.020Z,20.57
2023-01-21T12:50:42.165Z,19.77
2023-01-21T12:53:33.541Z,19.97
2023-01-21T12:56:24.819Z,19.33
2023-01-21T12:59:16.227Z,20.50
2023-01-21T13:01:56.251Z,21.40
2023-01-21T13:04:40.324Z,20.40
2023-01-21T13:07:21.677Z,20.23
2023-01-21T13:10:15.336Z,19.77
2023-01-21T13:13:11.526Z,15.80
2023-01-21T13:15:45.732Z,18.47
2023-01-21T13:18:27.451Z,19.60
2023-01-21T13:21:22.731Z,18.77
2023-01-21T13:24:16.836Z,20.67
2023-01-21T13:26:58.214Z,19.70
2023-01-21T13:29:38.131Z,19.60
2023-01-21T13:32:29.796Z,18.53
2023-01-21T13:35:18.827Z,18.40
2023-01-21T13:37:58.664Z,18.63
2023-01-21T13:40:40.644Z,18.77
2023-01-21T13:43:25.313Z,17.67
2023-01-21T13:46:06.759Z,17.77
2023-01-21T13:49:06.624Z,17.17
2023-01-21T13:51:46.874Z,18.33
2023-01-21T13:54:42.435Z,17.67
2023-01-21T13:57:32.848Z,18.53
2023-01-21T14:00:07.836Z,17.73
2023-01-21T14:02:48.952Z,16.80
2023-01-21T14:05:23.609Z,17.60
2023-01-21T14:07:58.079Z,17.90
2023-01-21T14:10:31.934Z,17.97
2023-01-21T14:13:31.854Z,16.20
2023-01-21T14:16:25.280Z,16.07
2023-01-21T14:19:21.178Z,17.30
2023-01-21T14:22:11.764Z,16.37
2023-01-21T14:24:55.785Z,15.47
2023-01-21T14:27:31.960Z,16.70
2023-01-21T14:30:10.308Z,18.30
2023-01-21T14:32:45.493Z,16.43
2023-01-21T14:35:23.776Z,16.13
2023-01-21T14:37:56.819Z,15.90
2023-01-21T14:40:30.133Z,15.77
2023-01-21T14:42:59.136Z,16.10
2023-01-21T14:45:53.637Z,14.83
2023-01-21T14:48:32.920Z,15.30
2023-01-21T14:51:13.217Z,15.70
2023-01-21T14:53:47.538Z,14.10
2023-01-21T14:56:23.327Z,14.07
2023-01-21T14:58:54.530Z,14.33
2023-01-21T15:01:32.924Z,13.83
2023-01-21T15:04:05.087Z,14.23
2023-01-21T15:06:39.849Z,13.90
2023-01-21T15:09:09.270Z,14.17
2023-01-21T15:11:39.969Z,14.13
2023-01-21T15:14:16.716Z,14.77
2023-01-21T15:16:48.032Z,12.43
2023-01-21T15:19:26.331Z,13.33
2023-01-21T15:22:23.726Z,14.07
2023-01-21T15:25:20.437Z,12.87
2023-01-21T15:28:29.075Z,12.83
2023-01-21T15:31:01.732Z,13.20
2023-01-21T15:33:32.563Z,12.83
2023-01-21T15:36:02.513Z,12.90
2023-01-21T15:38:30.862Z,13.20
2023-01-21T15:41:03.490Z,12.93
2023-01-21T15:43:37.151Z,13.00
2023-01-21T15:46:22.771Z,14.13
2023-01-21T15:49:10.038Z,13.13
2023-01-21T15:51:49.112Z,14.70
2023-01-21T15:54:30.239Z,13.47
2023-01-21T15:57:11.726Z,13.87
2023-01-21T15:59:59.718Z,13.20
2023-01-21T16:02:31.804Z,12.20
2023-01-21T16:05:26.188Z,13.00
2023-01-21T16:08:04.088Z,13.00
2023-01-21T16:10:38.539Z,13.50
2023-01-21T16:13:16.972Z,13.50
2023-01-21T16:15:58.684Z,13.77
2023-01-21T16:18:32.820Z,14.20
2023-01-21T16:21:04.699Z,14.33
2023-01-21T16:23:38.046Z,12.70
2023-01-21T16:26:06.487Z,14.17
2023-01-21T16:28:43.024Z,13.97
2023-01-21T16:31:11.468Z,13.40
2023-01-21T16:33:39.826Z,15.83
2023-01-21T16:36:14.297Z,16.00
2023-01-21T16:38:44.950Z,13.57
2023-01-21T16:41:27.560Z,14.10
2023-01-21T16:43:59.571Z,14.50
2023-01-21T16:46:32.726Z,14.90
2023-01-21T16:49:04.658Z,15.43
2023-01-21T16:51:36.255Z,16.73
2023-01-21T16:54:27.106Z,16.80
2023-01-21T16:56:58.160Z,18.73
2023-01-21T16:59:29.175Z,21.80
2023-01-21T17:01:59.583Z,16.17
2023-01-21T17:04:29.901Z,13.53
2023-01-21T17:07:00.282Z,14.83
2023-01-21T17:09:33.158Z,15.53
2023-01-21T17:12:05.840Z,18.00
2023-01-21T17:14:36.289Z,17.03
2023-01-21T17:17:08.528Z,19.80
2023-01-21T17:19:39.791Z,19.13
2023-01-21T17:22:15.718Z,17.00
2023-01-21T17:24:56.627Z,15.63
2023-01-21T17:27:26.286Z,20.73
2023-01-21T17:29:54.692Z,21.40
2023-01-21T17:32:27.760Z,17.47
2023-01-21T17:35:12.907Z,15.60
2023-01-21T17:37:45.599Z,15.97
2023-01-21T17:40:33.046Z,15.73
2023-01-21T17:43:10.223Z,13.73
2023-01-21T17:45:44.858Z,14.13
2023-01-21T17:48:23.903Z,15.43
2023-01-21T17:50:52.739Z,15.03
2023-01-21T17:53:26.865Z,17.07
2023-01-21T17:56:01.760Z,17.90
2023-01-21T17:58:52.745Z,15.87
2023-01-21T18:01:22.164Z,15.27
2023-01-21T18:03:50.601Z,16.33
2023-01-21T18:06:21.546Z,17.00
2023-01-21T18:08:52.771Z,16.40
2023-01-21T18:11:22.154Z,17.40
2023-01-21T18:13:52.452Z,15.07
2023-01-21T18:16:21.020Z,16.10
2023-01-21T18:18:50.622Z,16.60
2023-01-21T18:21:21.130Z,16.57
2023-01-21T18:23:51.062Z,15.90
2023-01-21T18:26:28.266Z,16.07
2023-01-21T18:28:56.913Z,16.53
2023-01-21T18:31:25.420Z,16.57
2023-01-21T18:33:53.670Z,17.57
2023-01-21T18:36:22.216Z,24.73
2023-01-21T18:38:51.803Z,23.20
2023-01-21T18:41:20.176Z,23.20
2023-01-21T18:43:48.402Z,19.73
2023-01-21T18:46:19.638Z,24.10
2023-01-21T18:48:48.248Z,18.97
2023-01-21T18:51:16.718Z,25.50
2023-01-21T18:53:45.020Z,24.83
2023-01-21T18:56:16.881Z,24.73
2023-01-21T18:58:45.607Z,21.83
2023-01-21T19:01:23.148Z,16.40
2023-01-21T19:03:53.750Z,21.20
2023-01-21T19:06:24.368Z,19.03
2023-01-21T19:08:53.022Z,17.93
2023-01-21T19:11:23.774Z,18.40
2023-01-21T19:13:52.252Z,21.73
2023-01-21T19:16:21.719Z,21.40
2023-01-21T19:18:50.294Z,20.27
2023-01-21T19:21:18.633Z,20.30
2023-01-21T19:23:47.192Z,18.90
2023-01-21T19:26:15.594Z,21.30
2023-01-21T19:28:45.532Z,22.47
2023-01-21T19:31:14.048Z,19.37
2023-01-21T19:33:45.600Z,17.83
2023-01-21T19:36:16.584Z,16.93
2023-01-21T19:38:49.778Z,16.07
2023-01-21T19:41:18.161Z,15.33
2023-01-21T19:43:47.762Z,15.17
2023-01-21T19:46:16.324Z,15.53
2023-01-21T19:48:44.882Z,15.33
2023-01-21T19:51:13.776Z,15.33
2023-01-21T19:53:42.112Z,15.33
2023-01-21T19:56:16.560Z,15.30
2023-01-21T19:58:45.131Z,13.97
2023-01-21T20:01:14.899Z,13.77
2023-01-21T20:03:58.588Z,14.10
2023-01-21T20:06:31.081Z,13.37
2023-01-21T20:09:01.174Z,15.23
2023-01-21T20:11:29.694Z,14.63
2023-01-21T20:13:58.585Z,14.77
2023-01-21T20:16:28.347Z,15.37
2023-01-21T20:19:02.227Z,14.03
2023-01-21T20:21:30.614Z,17.70
2023-01-21T20:23:58.771Z,15.90
2023-01-21T20:26:28.952Z,21.40
2023-01-21T20:29:03.101Z,36.47
2023-01-21T20:31:33.037Z,21.73
2023-01-21T20:34:01.649Z,19.53
2023-01-21T20:36:30.541Z,18.33
2023-01-21T20:38:58.777Z,18.13
2023-01-21T20:41:28.003Z,18.27
2023-01-21T20:43:57.416Z,16.60
2023-01-21T20:46:28.343Z,16.67
2023-01-21T20:48:58.890Z,18.07
2023-01-21T20:51:27.365Z,18.87
2023-01-21T20:53:55.752Z,22.17
2023-01-21T20:56:27.711Z,16.47
2023-01-21T20:58:59.927Z,19.47
2023-01-21T21:01:29.245Z,18.07
2023-01-21T21:03:58.896Z,16.20
2023-01-21T21:06:28.857Z,15.60
2023-01-21T21:08:57.590Z,16.87
2023-01-21T21:11:25.855Z,17.73
2023-01-21T21:13:57.168Z,17.77
2023-01-21T21:16:29.102Z,20.23
2023-01-21T21:18:59.488Z,21.00
2023-01-21T21:21:27.817Z,18.70
2023-01-21T21:23:56.030Z,15.60
2023-01-21T21:26:26.074Z,20.13
2023-01-21T21:28:55.614Z,17.83
2023-01-21T21:31:24.874Z,19.57
2023-01-21T21:33:53.213Z,18.90
2023-01-21T21:36:24.679Z,20.43
2023-01-21T21:38:55.533Z,21.70
2023-01-21T21:41:43.319Z,17.27
2023-01-21T21:44:12.283Z,17.00
2023-01-21T21:47:10.355Z,18.37
2023-01-21T21:49:39.773Z,18.90
2023-01-21T21:52:09.401Z,16.00
2023-01-21T21:54:38.019Z,16.57
2023-01-21T21:57:06.182Z,16.37
2023-01-21T21:59:34.490Z,16.10
2023-01-21T22:02:06.537Z,16.10
2023-01-21T22:04:35.062Z,16.30
2023-01-21T22:07:03.475Z,16.97
2023-01-21T22:09:34.125Z,16.37
2023-01-21T22:12:02.525Z,16.50
2023-01-21T22:14:30.804Z,15.20
2023-01-21T22:16:59.122Z,15.30
2023-01-21T22:19:27.400Z,14.43
2023-01-21T22:21:55.709Z,13.97
2023-01-21T22:24:24.095Z,13.37
2023-01-21T22:26:53.658Z,15.00
2023-01-21T22:29:21.888Z,13.47
2023-01-21T22:31:50.208Z,13.03
2023-01-21T22:34:18.475Z,13.07
2023-01-21T22:36:48.193Z,13.13
2023-01-21T22:39:16.601Z,13.90
2023-01-21T22:41:44.900Z,12.80
2023-01-21T22:44:14.429Z,13.57
2023-01-21T22:46:42.659Z,14.00
2023-01-21T22:49:12.061Z,12.47
2023-01-21T22:51:41.219Z,14.30
2023-01-21T22:54:09.436Z,14.50
2023-01-21T22:56:51.648Z,14.10
2023-01-21T22:59:22.261Z,15.53
2023-01-21T23:01:51.286Z,14.77
2023-01-21T23:04:19.602Z,14.03
2023-01-21T23:06:48.864Z,14.20
2023-01-21T23:09:17.240Z,14.33
2023-01-21T23:11:46.014Z,13.57
2023-01-21T23:14:14.310Z,14.07
2023-01-21T23:16:44.516Z,13.93
2023-01-21T23:19:13.127Z,12.70
2023-01-21T23:21:41.745Z,13.07
2023-01-21T23:24:10.059Z,12.10
2023-01-21T23:26:38.603Z,11.77
2023-01-21T23:29:06.861Z,11.67
2023-01-21T23:31:35.319Z,12.83
2023-01-21T23:34:05.134Z,18.63
2023-01-21T23:36:33.359Z,15.63
2023-01-21T23:39:01.743Z,14.80
2023-01-21T23:41:29.968Z,15.90
2023-01-21T23:44:00.713Z,15.23
2023-01-21T23:46:29.086Z,16.07
2023-01-21T23:48:57.529Z,14.03
2023-01-21T23:51:27.141Z,13.70
2023-01-21T23:53:57.093Z,13.57
2023-01-21T23:56:26.771Z,14.17
2023-01-21T23:58:55.296Z,14.13
